sensor_id;sensor_type;location;lat;lon;timestamp;pressure;altitude;pressure_sealevel;temperature;humidity
43480;BME280;29067;35.492;-97.520;2023-04-03T00:01:02;96070.97;;;18.03;46.78
43480;BME280;29067;35.492;-97.520;2023-04-03T00:03:31;96061.85;;;17.79;47.47
43480;BME280;29067;35.492;-97.520;2023-04-03T00:05:59;96064.51;;;17.11;48.21
43480;BME280;29067;35.492;-97.520;2023-04-03T00:08:27;96062.14;;;17.50;47.73
43480;BME280;29067;35.492;-97.520;2023-04-03T00:10:55;96053.48;;;16.69;49.05
43480;BME280;29067;35.492;-97.520;2023-04-03T00:13:23;96046.94;;;18.14;47.16
43480;BME280;29067;35.492;-97.520;2023-04-03T00:15:51;96051.13;;;16.72;48.65
43480;BME280;29067;35.492;-97.520;2023-04-03T00:18:20;96051.41;;;19.33;45.69
43480;BME280;29067;35.492;-97.520;2023-04-03T00:20:48;96036.87;;;19.34;44.75
43480;BME280;29067;35.492;-97.520;2023-04-03T00:23:17;96033.17;;;18.51;45.07
43480;BME280;29067;35.492;-97.520;2023-04-03T00:25:45;96028.86;;;17.88;46.03
43480;BME280;29067;35.492;-97.520;2023-04-03T00:28:13;96037.94;;;18.29;45.33
43480;BME280;29067;35.492;-97.520;2023-04-03T00:30:41;96033.52;;;18.63;44.77
43480;BME280;29067;35.492;-97.520;2023-04-03T00:33:11;96033.26;;;18.63;44.07
43480;BME280;29067;35.492;-97.520;2023-04-03T00:35:40;96033.59;;;19.23;42.69
43480;BME280;29067;35.492;-97.520;2023-04-03T00:38:09;96040.32;;;17.81;44.58
43480;BME280;29067;35.492;-97.520;2023-04-03T00:40:39;96035.74;;;17.06;44.21
43480;BME280;29067;35.492;-97.520;2023-04-03T00:43:13;96039.14;;;17.69;44.73
43480;BME280;29067;35.492;-97.520;2023-04-03T00:45:43;96038.85;;;17.53;44.67
43480;BME280;29067;35.492;-97.520;2023-04-03T00:48:15;96036.56;;;16.48;46.11
43480;BME280;29067;35.492;-97.520;2023-04-03T00:50:45;96038.94;;;17.43;45.00
43480;BME280;29067;35.492;-97.520;2023-04-03T00:53:16;96042.40;;;17.28;45.54
43480;BME280;29067;35.492;-97.520;2023-04-03T00:55:47;96040.66;;;17.95;44.12
43480;BME280;29067;35.492;-97.520;2023-04-03T00:58:18;96042.33;;;16.58;45.57
43480;BME280;29067;35.492;-97.520;2023-04-03T01:00:52;96038.99;;;15.77;46.79
43480;BME280;29067;35.492;-97.520;2023-04-03T01:03:22;96035.43;;;16.25;45.99
43480;BME280;29067;35.492;-97.520;2023-04-03T01:05:51;96040.66;;;16.92;44.88
43480;BME280;29067;35.492;-97.520;2023-04-03T01:08:19;96045.68;;;15.87;46.80
43480;BME280;29067;35.492;-97.520;2023-04-03T01:10:47;96048.72;;;17.01;46.14
43480;BME280;29067;35.492;-97.520;2023-04-03T01:13:22;96057.72;;;17.39;45.82
43480;BME280;29067;35.492;-97.520;2023-04-03T01:15:50;96049.87;;;17.65;44.45
43480;BME280;29067;35.492;-97.520;2023-04-03T01:18:18;96050.94;;;16.61;46.00
43480;BME280;29067;35.492;-97.520;2023-04-03T01:23:10;96061.65;;;17.57;46.23
43480;BME280;29067;35.492;-97.520;2023-04-03T01:25:42;96065.20;;;16.48;47.49
43480;BME280;29067;35.492;-97.520;2023-04-03T01:28:13;96068.27;;;17.12;46.28
43480;BME280;29067;35.492;-97.520;2023-04-03T01:30:46;96072.22;;;16.93;46.76
43480;BME280;29067;35.492;-97.520;2023-04-03T01:33:16;96073.54;;;16.51;48.85
43480;BME280;29067;35.492;-97.520;2023-04-03T01:35:44;96075.29;;;16.69;48.27
43480;BME280;29067;35.492;-97.520;2023-04-03T01:38:12;96073.47;;;16.58;49.06
43480;BME280;29067;35.492;-97.520;2023-04-03T01:40:40;96081.83;;;16.61;49.37
43480;BME280;29067;35.492;-97.520;2023-04-03T01:43:09;96081.97;;;16.00;50.79
43480;BME280;29067;35.492;-97.520;2023-04-03T01:45:37;96077.05;;;15.86;51.37
43480;BME280;29067;35.492;-97.520;2023-04-03T01:48:05;96079.13;;;15.96;51.13
43480;BME280;29067;35.492;-97.520;2023-04-03T01:50:32;96082.12;;;16.27;51.71
43480;BME280;29067;35.492;-97.520;2023-04-03T01:53:00;96076.85;;;16.73;51.98
43480;BME280;29067;35.492;-97.520;2023-04-03T01:55:28;96085.49;;;14.82;56.51
43480;BME280;29067;35.492;-97.520;2023-04-03T01:57:56;96086.17;;;14.97;56.64
43480;BME280;29067;35.492;-97.520;2023-04-03T02:00:24;96085.35;;;15.18;55.66
43480;BME280;29067;35.492;-97.520;2023-04-03T02:02:52;96090.01;;;15.46;55.78
43480;BME280;29067;35.492;-97.520;2023-04-03T02:05:21;96096.74;;;14.88;56.50
43480;BME280;29067;35.492;-97.520;2023-04-03T02:07:49;96093.78;;;15.42;55.66
43480;BME280;29067;35.492;-97.520;2023-04-03T02:10:17;96101.56;;;14.19;57.53
43480;BME280;29067;35.492;-97.520;2023-04-03T02:12:45;96109.46;;;13.66;59.07
43480;BME280;29067;35.492;-97.520;2023-04-03T02:15:12;96103.66;;;14.69;57.37
43480;BME280;29067;35.492;-97.520;2023-04-03T02:17:40;96104.93;;;14.72;57.18
43480;BME280;29067;35.492;-97.520;2023-04-03T02:20:09;96108.78;;;14.57;56.73
43480;BME280;29067;35.492;-97.520;2023-04-03T02:22:37;96109.42;;;14.40;55.71
43480;BME280;29067;35.492;-97.520;2023-04-03T02:25:05;96112.37;;;14.54;55.37
43480;BME280;29067;35.492;-97.520;2023-04-03T02:27:33;96113.99;;;15.22;53.77
43480;BME280;29067;35.492;-97.520;2023-04-03T02:30:01;96111.21;;;14.34;54.00
43480;BME280;29067;35.492;-97.520;2023-04-03T02:32:29;96111.10;;;14.66;52.92
43480;BME280;29067;35.492;-97.520;2023-04-03T02:34:56;96114.30;;;14.38;52.79
43480;BME280;29067;35.492;-97.520;2023-04-03T02:37:25;96133.79;;;13.78;53.43
43480;BME280;29067;35.492;-97.520;2023-04-03T02:39:53;96129.27;;;13.26;54.54
43480;BME280;29067;35.492;-97.520;2023-04-03T02:42:20;96135.28;;;14.54;52.38
43480;BME280;29067;35.492;-97.520;2023-04-03T02:44:48;96125.94;;;14.10;53.14
43480;BME280;29067;35.492;-97.520;2023-04-03T02:47:16;96123.49;;;13.90;53.47
43480;BME280;29067;35.492;-97.520;2023-04-03T02:49:44;96125.97;;;14.24;52.89
43480;BME280;29067;35.492;-97.520;2023-04-03T02:52:12;96133.15;;;13.96;53.30
43480;BME280;29067;35.492;-97.520;2023-04-03T02:54:41;96135.11;;;14.38;52.27
43480;BME280;29067;35.492;-97.520;2023-04-03T02:57:08;96124.24;;;13.95;53.18
43480;BME280;29067;35.492;-97.520;2023-04-03T02:59:36;96132.67;;;13.85;52.83
43480;BME280;29067;35.492;-97.520;2023-04-03T03:02:05;96130.26;;;12.98;55.70
43480;BME280;29067;35.492;-97.520;2023-04-03T03:04:33;96126.62;;;13.30;54.94
43480;BME280;29067;35.492;-97.520;2023-04-03T03:07:06;96138.21;;;12.16;57.57
43480;BME280;29067;35.492;-97.520;2023-04-03T03:09:34;96135.32;;;12.80;58.81
43480;BME280;29067;35.492;-97.520;2023-04-03T03:12:03;96152.32;;;12.41;60.09
43480;BME280;29067;35.492;-97.520;2023-04-03T03:14:31;96144.87;;;12.71;59.90
43480;BME280;29067;35.492;-97.520;2023-04-03T03:16:59;96157.82;;;12.20;61.56
43480;BME280;29067;35.492;-97.520;2023-04-03T03:19:27;96162.80;;;11.59;62.03
43480;BME280;29067;35.492;-97.520;2023-04-03T03:21:54;96167.87;;;11.99;61.73
43480;BME280;29067;35.492;-97.520;2023-04-03T03:24:23;96167.80;;;11.90;63.14
43480;BME280;29067;35.492;-97.520;2023-04-03T03:26:51;96159.53;;;12.27;62.71
43480;BME280;29067;35.492;-97.520;2023-04-03T03:29:19;96165.87;;;11.99;63.80
43480;BME280;29067;35.492;-97.520;2023-04-03T03:31:47;96169.66;;;11.99;65.16
43480;BME280;29067;35.492;-97.520;2023-04-03T03:34:15;96174.16;;;10.95;68.14
43480;BME280;29067;35.492;-97.520;2023-04-03T03:36:42;96177.25;;;11.55;66.35
43480;BME280;29067;35.492;-97.520;2023-04-03T03:39:10;96173.07;;;11.07;68.02
43480;BME280;29067;35.492;-97.520;2023-04-03T03:41:38;96177.69;;;11.52;66.39
43480;BME280;29067;35.492;-97.520;2023-04-03T03:44:06;96174.48;;;11.73;65.97
43480;BME280;29067;35.492;-97.520;2023-04-03T03:46:33;96177.19;;;11.20;66.85
43480;BME280;29067;35.492;-97.520;2023-04-03T03:49:01;96179.87;;;12.02;65.13
43480;BME280;29067;35.492;-97.520;2023-04-03T03:51:30;96177.01;;;12.45;64.35
43480;BME280;29067;35.492;-97.520;2023-04-03T03:53:58;96183.31;;;11.24;66.61
43480;BME280;29067;35.492;-97.520;2023-04-03T03:56:25;96186.74;;;11.38;67.16
43480;BME280;29067;35.492;-97.520;2023-04-03T03:58:53;96177.74;;;10.79;68.75
43480;BME280;29067;35.492;-97.520;2023-04-03T04:01:26;96181.67;;;11.14;69.45
43480;BME280;29067;35.492;-97.520;2023-04-03T04:03:54;96169.42;;;11.20;67.66
43480;BME280;29067;35.492;-97.520;2023-04-03T04:06:21;96164.26;;;11.47;68.58
43480;BME280;29067;35.492;-97.520;2023-04-03T04:08:50;96169.68;;;11.57;67.27
43480;BME280;29067;35.492;-97.520;2023-04-03T04:11:19;96169.98;;;10.34;70.23
43480;BME280;29067;35.492;-97.520;2023-04-03T04:13:46;96179.20;;;10.43;74.19
43480;BME280;29067;35.492;-97.520;2023-04-03T04:16:14;96165.71;;;9.93;76.83
43480;BME280;29067;35.492;-97.520;2023-04-03T04:18:42;96167.77;;;11.28;74.51
43480;BME280;29067;35.492;-97.520;2023-04-03T04:21:10;96179.19;;;11.23;73.94
43480;BME280;29067;35.492;-97.520;2023-04-03T04:23:38;96174.47;;;10.68;76.52
43480;BME280;29067;35.492;-97.520;2023-04-03T04:26:05;96179.72;;;10.54;80.64
43480;BME280;29067;35.492;-97.520;2023-04-03T04:28:33;96186.10;;;10.24;84.77
43480;BME280;29067;35.492;-97.520;2023-04-03T04:31:01;96175.40;;;10.36;88.03
43480;BME280;29067;35.492;-97.520;2023-04-03T04:33:29;96174.02;;;10.66;89.04
43480;BME280;29067;35.492;-97.520;2023-04-03T04:35:56;96178.71;;;11.30;87.17
43480;BME280;29067;35.492;-97.520;2023-04-03T04:38:25;96165.09;;;10.86;88.18
43480;BME280;29067;35.492;-97.520;2023-04-03T04:40:53;96181.36;;;10.18;89.99
43480;BME280;29067;35.492;-97.520;2023-04-03T04:43:21;96170.83;;;10.72;88.85
43480;BME280;29067;35.492;-97.520;2023-04-03T04:45:57;96162.09;;;11.66;84.69
43480;BME280;29067;35.492;-97.520;2023-04-03T04:48:26;96168.67;;;10.65;92.31
43480;BME280;29067;35.492;-97.520;2023-04-03T04:50:54;96166.94;;;10.84;89.76
43480;BME280;29067;35.492;-97.520;2023-04-03T04:53:22;96159.50;;;11.74;82.98
43480;BME280;29067;35.492;-97.520;2023-04-03T04:55:51;96169.37;;;10.79;90.01
43480;BME280;29067;35.492;-97.520;2023-04-03T04:58:19;96165.83;;;10.86;85.74
43480;BME280;29067;35.492;-97.520;2023-04-03T05:00:47;96161.40;;;11.11;90.23
43480;BME280;29067;35.492;-97.520;2023-04-03T05:03:16;96151.56;;;11.14;87.97
43480;BME280;29067;35.492;-97.520;2023-04-03T05:05:43;96159.82;;;10.00;91.19
43480;BME280;29067;35.492;-97.520;2023-04-03T05:08:11;96163.88;;;10.70;92.46
43480;BME280;29067;35.492;-97.520;2023-04-03T05:10:39;96154.61;;;10.95;89.62
43480;BME280;29067;35.492;-97.520;2023-04-03T05:13:07;96146.76;;;11.13;92.25
43480;BME280;29067;35.492;-97.520;2023-04-03T05:15:36;96146.12;;;10.63;95.48
43480;BME280;29067;35.492;-97.520;2023-04-03T05:18:04;96151.33;;;9.85;97.29
43480;BME280;29067;35.492;-97.520;2023-04-03T05:20:32;96152.29;;;11.18;94.01
43480;BME280;29067;35.492;-97.520;2023-04-03T05:23:06;96146.26;;;10.54;93.34
43480;BME280;29067;35.492;-97.520;2023-04-03T05:25:34;96144.34;;;10.11;96.09
43480;BME280;29067;35.492;-97.520;2023-04-03T05:28:01;96146.13;;;9.73;96.98
43480;BME280;29067;35.492;-97.520;2023-04-03T05:30:29;96146.60;;;9.97;100.00
43480;BME280;29067;35.492;-97.520;2023-04-03T05:32:58;96145.81;;;10.59;99.61
43480;BME280;29067;35.492;-97.520;2023-04-03T05:35:26;96139.55;;;10.28;100.00
43480;BME280;29067;35.492;-97.520;2023-04-03T05:37:54;96141.66;;;10.05;100.00
43480;BME280;29067;35.492;-97.520;2023-04-03T05:40:22;96137.28;;;9.48;100.00
43480;BME280;29067;35.492;-97.520;2023-04-03T05:42:49;96132.04;;;9.99;100.00
43480;BME280;29067;35.492;-97.520;2023-04-03T05:45:17;96126.42;;;10.42;100.00
43480;BME280;29067;35.492;-97.520;2023-04-03T05:47:45;96130.04;;;9.56;100.00
43480;BME280;29067;35.492;-97.520;2023-04-03T05:50:13;96131.34;;;9.98;100.00
43480;BME280;29067;35.492;-97.520;2023-04-03T05:52:43;96132.78;;;10.49;100.00
43480;BME280;29067;35.492;-97.520;2023-04-03T05:55:12;96120.12;;;10.41;100.00
43480;BME280;29067;35.492;-97.520;2023-04-03T05:57:40;96123.33;;;9.95;100.00
43480;BME280;29067;35.492;-97.520;2023-04-03T06:00:12;96121.92;;;10.28;100.00
43480;BME280;29067;35.492;-97.520;2023-04-03T06:02:40;96120.83;;;10.21;100.00
43480;BME280;29067;35.492;-97.520;2023-04-03T06:05:08;96119.04;;;10.79;100.00
43480;BME280;29067;35.492;-97.520;2023-04-03T06:07:37;96120.14;;;9.70;100.00
43480;BME280;29067;35.492;-97.520;2023-04-03T06:10:06;96119.79;;;10.64;100.00
43480;BME280;29067;35.492;-97.520;2023-04-03T06:12:34;96102.15;;;10.21;100.00
43480;BME280;29067;35.492;-97.520;2023-04-03T06:15:03;96104.74;;;10.11;100.00
43480;BME280;29067;35.492;-97.520;2023-04-03T06:17:31;96105.88;;;9.25;100.00
43480;BME280;29067;35.492;-97.520;2023-04-03T06:19:58;96093.30;;;10.33;100.00
43480;BME280;29067;35.492;-97.520;2023-04-03T06:22:26;96100.02;;;10.12;100.00
43480;BME280;29067;35.492;-97.520;2023-04-03T06:24:54;96087.88;;;11.10;96.56
43480;BME280;29067;35.492;-97.520;2023-04-03T06:27:22;96085.34;;;10.21;100.00
43480;BME280;29067;35.492;-97.520;2023-04-03T06:29:50;96083.71;;;11.16;97.66
43480;BME280;29067;35.492;-97.520;2023-04-03T06:32:19;96081.62;;;11.36;94.88
43480;BME280;29067;35.492;-97.520;2023-04-03T06:34:47;96078.91;;;10.30;98.08
43480;BME280;29067;35.492;-97.520;2023-04-03T06:37:17;96076.39;;;11.02;97.43
43480;BME280;29067;35.492;-97.520;2023-04-03T06:39:45;96067.82;;;10.30;94.77
43480;BME280;29067;35.492;-97.520;2023-04-03T06:42:13;96073.65;;;10.04;98.08
43480;BME280;29067;35.492;-97.520;2023-04-03T06:44:41;96073.63;;;10.05;100.00
43480;BME280;29067;35.492;-97.520;2023-04-03T06:47:10;96085.21;;;9.77;100.00
43480;BME280;29067;35.492;-97.520;2023-04-03T06:49:39;96069.85;;;10.75;98.46
43480;BME280;29067;35.492;-97.520;2023-04-03T06:52:07;96074.91;;;10.74;96.38
43480;BME280;29067;35.492;-97.520;2023-04-03T06:54:36;96071.73;;;10.81;100.00
43480;BME280;29067;35.492;-97.520;2023-04-03T06:57:04;96072.84;;;10.32;100.00
43480;BME280;29067;35.492;-97.520;2023-04-03T06:59:32;96067.06;;;10.96;95.72
43480;BME280;29067;35.492;-97.520;2023-04-03T07:02:00;96072.82;;;9.76;100.00
43480;BME280;29067;35.492;-97.520;2023-04-03T07:04:27;96071.32;;;10.48;100.00
43480;BME280;29067;35.492;-97.520;2023-04-03T07:06:55;96063.86;;;11.16;98.77
43480;BME280;29067;35.492;-97.520;2023-04-03T07:09:23;96065.34;;;9.44;100.00
43480;BME280;29067;35.492;-97.520;2023-04-03T07:11:51;96051.32;;;10.42;100.00
43480;BME280;29067;35.492;-97.520;2023-04-03T07:14:19;96047.84;;;11.57;96.54
43480;BME280;29067;35.492;-97.520;2023-04-03T07:16:47;96057.11;;;10.12;100.00
43480;BME280;29067;35.492;-97.520;2023-04-03T07:19:15;96043.84;;;10.41;100.00
43480;BME280;29067;35.492;-97.520;2023-04-03T07:21:43;96035.97;;;11.08;100.00
43480;BME280;29067;35.492;-97.520;2023-04-03T07:24:11;96048.29;;;9.59;100.00
43480;BME280;29067;35.492;-97.520;2023-04-03T07:26:39;96036.52;;;10.37;100.00
43480;BME280;29067;35.492;-97.520;2023-04-03T07:29:08;96042.77;;;11.04;100.00
43480;BME280;29067;35.492;-97.520;2023-04-03T07:31:36;96049.47;;;10.05;100.00
43480;BME280;29067;35.492;-97.520;2023-04-03T07:34:04;96040.22;;;10.15;100.00
43480;BME280;29067;35.492;-97.520;2023-04-03T07:36:31;96050.51;;;10.65;100.00
43480;BME280;29067;35.492;-97.520;2023-04-03T07:38:59;96034.92;;;9.86;100.00
43480;BME280;29067;35.492;-97.520;2023-04-03T07:41:27;96026.44;;;10.08;100.00
43480;BME280;29067;35.492;-97.520;2023-04-03T07:43:55;96018.57;;;10.89;99.87
43480;BME280;29067;35.492;-97.520;2023-04-03T07:46:22;96021.37;;;9.94;100.00
43480;BME280;29067;35.492;-97.520;2023-04-03T07:48:50;96015.16;;;9.03;100.00
43480;BME280;29067;35.492;-97.520;2023-04-03T07:51:18;96021.81;;;9.34;100.00
43480;BME280;29067;35.492;-97.520;2023-04-03T07:53:46;96022.27;;;9.27;100.00
43480;BME280;29067;35.492;-97.520;2023-04-03T07:56:14;96016.16;;;9.68;100.00
43480;BME280;29067;35.492;-97.520;2023-04-03T07:58:43;96002.60;;;10.13;100.00
43480;BME280;29067;35.492;-97.520;2023-04-03T08:01:10;96010.52;;;10.32;100.00
43480;BME280;29067;35.492;-97.520;2023-04-03T08:03:39;96005.70;;;10.77;100.00
43480;BME280;29067;35.492;-97.520;2023-04-03T08:06:08;95994.76;;;10.27;100.00
43480;BME280;29067;35.492;-97.520;2023-04-03T08:08:36;96003.14;;;10.54;100.00
43480;BME280;29067;35.492;-97.520;2023-04-03T08:11:04;95998.96;;;10.09;100.00
43480;BME280;29067;35.492;-97.520;2023-04-03T08:13:32;95998.41;;;11.49;100.00
43480;BME280;29067;35.492;-97.520;2023-04-03T08:16:09;96001.03;;;10.72;100.00
43480;BME280;29067;35.492;-97.520;2023-04-03T08:18:38;95993.95;;;11.46;100.00
43480;BME280;29067;35.492;-97.520;2023-04-03T08:21:07;95990.80;;;12.14;100.00
43480;BME280;29067;35.492;-97.520;2023-04-03T08:23:36;96004.65;;;11.51;100.00
43480;BME280;29067;35.492;-97.520;2023-04-03T08:26:09;95995.75;;;11.80;100.00
43480;BME280;29067;35.492;-97.520;2023-04-03T08:28:38;95986.69;;;11.92;100.00
43480;BME280;29067;35.492;-97.520;2023-04-03T08:31:07;95982.82;;;11.44;100.00
43480;BME280;29067;35.492;-97.520;2023-04-03T08:33:35;95975.55;;;11.51;100.00
43480;BME280;29067;35.492;-97.520;2023-04-03T08:36:05;95975.40;;;11.52;100.00
43480;BME280;29067;35.492;-97.520;2023-04-03T08:38:34;95977.48;;;11.00;100.00
43480;BME280;29067;35.492;-97.520;2023-04-03T08:41:10;95971.22;;;10.69;100.00
43480;BME280;29067;35.492;-97.520;2023-04-03T08:43:54;95971.49;;;11.33;100.00
43480;BME280;29067;35.492;-97.520;2023-04-03T08:46:28;95970.86;;;10.77;100.00
43480;BME280;29067;35.492;-97.520;2023-04-03T08:49:00;95967.85;;;11.46;100.00
43480;BME280;29067;35.492;-97.520;2023-04-03T08:51:29;95961.83;;;10.54;100.00
43480;BME280;29067;35.492;-97.520;2023-04-03T08:54:00;95959.95;;;11.57;100.00
43480;BME280;29067;35.492;-97.520;2023-04-03T08:56:30;95963.26;;;11.75;100.00
43480;BME280;29067;35.492;-97.520;2023-04-03T08:59:00;95953.49;;;11.59;100.00
43480;BME280;29067;35.492;-97.520;2023-04-03T09:01:35;95957.14;;;11.79;100.00
43480;BME280;29067;35.492;-97.520;2023-04-03T09:04:10;95960.09;;;11.32;100.00
43480;BME280;29067;35.492;-97.520;2023-04-03T09:06:40;95963.12;;;11.07;100.00
43480;BME280;29067;35.492;-97.520;2023-04-03T09:09:15;95960.77;;;10.48;100.00
43480;BME280;29067;35.492;-97.520;2023-04-03T09:11:50;95961.05;;;10.80;100.00
43480;BME280;29067;35.492;-97.520;2023-04-03T09:14:28;95964.56;;;11.31;100.00
43480;BME280;29067;35.492;-97.520;2023-04-03T09:17:04;95952.79;;;11.92;100.00
43480;BME280;29067;35.492;-97.520;2023-04-03T09:19:43;95956.01;;;10.63;100.00
43480;BME280;29067;35.492;-97.520;2023-04-03T09:22:20;95953.57;;;10.92;100.00
43480;BME280;29067;35.492;-97.520;2023-04-03T09:24:55;95952.67;;;10.93;100.00
43480;BME280;29067;35.492;-97.520;2023-04-03T09:27:23;95950.02;;;11.20;100.00
43480;BME280;29067;35.492;-97.520;2023-04-03T09:29:54;95951.18;;;10.87;100.00
43480;BME280;29067;35.492;-97.520;2023-04-03T09:32:27;95949.39;;;11.07;100.00
43480;BME280;29067;35.492;-97.520;2023-04-03T09:34:59;95951.14;;;11.27;100.00
43480;BME280;29067;35.492;-97.520;2023-04-03T09:37:46;95946.13;;;10.74;100.00
43480;BME280;29067;35.492;-97.520;2023-04-03T09:40:32;95947.28;;;10.95;100.00
43480;BME280;29067;35.492;-97.520;2023-04-03T09:43:08;95948.04;;;11.51;100.00
43480;BME280;29067;35.492;-97.520;2023-04-03T09:45:48;95942.00;;;11.20;100.00
43480;BME280;29067;35.492;-97.520;2023-04-03T09:48:18;95935.53;;;11.22;100.00
43480;BME280;29067;35.492;-97.520;2023-04-03T09:51:02;95933.65;;;11.16;100.00
43480;BME280;29067;35.492;-97.520;2023-04-03T09:53:35;95934.16;;;9.95;100.00
43480;BME280;29067;35.492;-97.520;2023-04-03T09:56:18;95937.91;;;11.60;100.00
43480;BME280;29067;35.492;-97.520;2023-04-03T09:58:48;95940.55;;;10.97;100.00
43480;BME280;29067;35.492;-97.520;2023-04-03T10:01:28;95953.74;;;10.12;100.00
43480;BME280;29067;35.492;-97.520;2023-04-03T10:04:08;95944.94;;;10.74;100.00
43480;BME280;29067;35.492;-97.520;2023-04-03T10:06:38;95935.37;;;10.49;100.00
43480;BME280;29067;35.492;-97.520;2023-04-03T10:09:17;95919.36;;;11.51;100.00
43480;BME280;29067;35.492;-97.520;2023-04-03T10:12:00;95919.74;;;11.45;100.00
43480;BME280;29067;35.492;-97.520;2023-04-03T10:14:29;95922.25;;;10.66;100.00
43480;BME280;29067;35.492;-97.520;2023-04-03T10:17:03;95925.39;;;10.46;100.00
43480;BME280;29067;35.492;-97.520;2023-04-03T10:19:42;95924.99;;;10.37;100.00
43480;BME280;29067;35.492;-97.520;2023-04-03T10:22:20;95914.68;;;10.34;100.00
43480;BME280;29067;35.492;-97.520;2023-04-03T10:25:02;95911.44;;;11.15;100.00
43480;BME280;29067;35.492;-97.520;2023-04-03T10:27:39;95907.19;;;10.83;100.00
43480;BME280;29067;35.492;-97.520;2023-04-03T10:30:23;95911.94;;;10.06;100.00
43480;BME280;29067;35.492;-97.520;2023-04-03T10:33:07;95904.56;;;10.14;100.00
43480;BME280;29067;35.492;-97.520;2023-04-03T10:35:47;95898.80;;;10.67;100.00
43480;BME280;29067;35.492;-97.520;2023-04-03T10:38:28;95894.10;;;10.20;100.00
43480;BME280;29067;35.492;-97.520;2023-04-03T10:41:05;95892.35;;;10.25;100.00
43480;BME280;29067;35.492;-97.520;2023-04-03T10:43:43;95891.65;;;11.04;100.00
43480;BME280;29067;35.492;-97.520;2023-04-03T10:46:15;95894.34;;;10.26;100.00
43480;BME280;29067;35.492;-97.520;2023-04-03T10:49:00;95908.46;;;10.28;100.00
43480;BME280;29067;35.492;-97.520;2023-04-03T10:51:39;95902.74;;;9.85;100.00
43480;BME280;29067;35.492;-97.520;2023-04-03T10:54:11;95900.65;;;9.78;100.00
43480;BME280;29067;35.492;-97.520;2023-04-03T10:56:44;95905.19;;;10.51;100.00
43480;BME280;29067;35.492;-97.520;2023-04-03T10:59:23;95906.43;;;10.55;100.00
43480;BME280;29067;35.492;-97.520;2023-04-03T11:03:05;95907.84;;;10.53;100.00
43480;BME280;29067;35.492;-97.520;2023-04-03T11:05:39;95909.90;;;9.80;100.00
43480;BME280;29067;35.492;-97.520;2023-04-03T11:08:13;95906.58;;;9.74;100.00
43480;BME280;29067;35.492;-97.520;2023-04-03T11:10:48;95902.00;;;10.38;100.00
43480;BME280;29067;35.492;-97.520;2023-04-03T11:13:22;95899.84;;;10.18;100.00
43480;BME280;29067;35.492;-97.520;2023-04-03T11:15:53;95892.61;;;10.98;100.00
43480;BME280;29067;35.492;-97.520;2023-04-03T11:18:26;95891.57;;;10.40;100.00
43480;BME280;29067;35.492;-97.520;2023-04-03T11:21:01;95905.11;;;10.32;100.00
43480;BME280;29067;35.492;-97.520;2023-04-03T11:23:34;95904.76;;;10.52;100.00
43480;BME280;29067;35.492;-97.520;2023-04-03T11:26:08;95908.35;;;9.31;100.00
43480;BME280;29067;35.492;-97.520;2023-04-03T11:28:38;95901.14;;;10.53;100.00
43480;BME280;29067;35.492;-97.520;2023-04-03T11:31:18;95906.28;;;11.00;100.00
43480;BME280;29067;35.492;-97.520;2023-04-03T11:33:58;95899.11;;;10.50;100.00
43480;BME280;29067;35.492;-97.520;2023-04-03T11:36:37;95888.27;;;10.19;100.00
43480;BME280;29067;35.492;-97.520;2023-04-03T11:39:18;95882.19;;;10.17;100.00
43480;BME280;29067;35.492;-97.520;2023-04-03T11:41:48;95883.04;;;9.46;100.00
43480;BME280;29067;35.492;-97.520;2023-04-03T11:44:49;95879.72;;;9.65;100.00
43480;BME280;29067;35.492;-97.520;2023-04-03T11:47:45;95876.61;;;9.73;100.00
43480;BME280;29067;35.492;-97.520;2023-04-03T11:50:41;95881.96;;;10.10;100.00
43480;BME280;29067;35.492;-97.520;2023-04-03T11:53:29;95884.25;;;9.46;100.00
43480;BME280;29067;35.492;-97.520;2023-04-03T11:56:00;95882.84;;;10.81;100.00
43480;BME280;29067;35.492;-97.520;2023-04-03T11:58:30;95881.58;;;10.66;100.00
43480;BME280;29067;35.492;-97.520;2023-04-03T12:01:01;95878.47;;;10.70;100.00
43480;BME280;29067;35.492;-97.520;2023-04-03T12:04:09;95883.42;;;10.98;100.00
43480;BME280;29067;35.492;-97.520;2023-04-03T12:07:08;95894.16;;;9.94;100.00
43480;BME280;29067;35.492;-97.520;2023-04-03T12:09:58;95886.05;;;10.22;100.00
43480;BME280;29067;35.492;-97.520;2023-04-03T12:12:34;95893.07;;;10.11;100.00
43480;BME280;29067;35.492;-97.520;2023-04-03T12:15:51;95892.22;;;10.10;100.00
43480;BME280;29067;35.492;-97.520;2023-04-03T12:18:53;95892.36;;;10.77;100.00
43480;BME280;29067;35.492;-97.520;2023-04-03T12:21:24;95896.54;;;11.16;100.00
43480;BME280;29067;35.492;-97.520;2023-04-03T12:24:32;95905.25;;;9.31;100.00
43480;BME280;29067;35.492;-97.520;2023-04-03T12:27:16;95904.23;;;10.46;100.00
43480;BME280;29067;35.492;-97.520;2023-04-03T12:29:54;95911.60;;;10.10;100.00
43480;BME280;29067;35.492;-97.520;2023-04-03T12:32:36;95912.32;;;9.66;100.00
43480;BME280;29067;35.492;-97.520;2023-04-03T12:35:18;95919.66;;;9.98;100.00
43480;BME280;29067;35.492;-97.520;2023-04-03T12:39:05;95929.49;;;10.18;100.00
43480;BME280;29067;35.492;-97.520;2023-04-03T12:41:44;95920.73;;;10.97;100.00
43480;BME280;29067;35.492;-97.520;2023-04-03T12:44:27;95932.01;;;9.52;100.00
43480;BME280;29067;35.492;-97.520;2023-04-03T12:47:01;95932.12;;;10.24;100.00
43480;BME280;29067;35.492;-97.520;2023-04-03T12:49:37;95938.67;;;9.85;100.00
43480;BME280;29067;35.492;-97.520;2023-04-03T12:52:18;95955.52;;;8.96;100.00
43480;BME280;29067;35.492;-97.520;2023-04-03T12:54:47;95935.58;;;9.50;100.00
43480;BME280;29067;35.492;-97.520;2023-04-03T12:57:19;95971.75;;;8.82;100.00
43480;BME280;29067;35.492;-97.520;2023-04-03T12:59:48;95944.41;;;10.50;100.00
43480;BME280;29067;35.492;-97.520;2023-04-03T13:02:22;95942.83;;;10.40;100.00